createdAt,value
2022-09-17T00:03:11.411Z,11.57
2022-09-17T00:08:15.108Z,11.47
2022-09-17T00:13:17.723Z,11.42
2022-09-17T00:18:20.304Z,11.30
2022-09-17T00:23:22.781Z,11.41
2022-09-17T00:28:25.441Z,11.89
2022-09-17T00:33:27.864Z,11.91
2022-09-17T00:38:30.665Z,11.60
2022-09-17T00:43:49.148Z,11.46
2022-09-17T00:48:54.620Z,11.49
2022-09-17T00:53:57.547Z,11.45
2022-09-17T00:59:02.873Z,11.37
2022-09-17T01:04:05.331Z,11.34
2022-09-17T01:09:45.411Z,11.28
2022-09-17T01:15:19.428Z,11.29
2022-09-17T01:20:59.479Z,11.29
2022-09-17T01:26:10.602Z,11.59
2022-09-17T01:31:45.349Z,11.83
2022-09-17T01:37:14.930Z,11.36
2022-09-17T01:42:33.517Z,11.15
2022-09-17T01:47:58.399Z,11.17
2022-09-17T01:53:03.020Z,11.10
2022-09-17T01:58:12.744Z,11.16
2022-09-17T02:03:23.781Z,11.27
2022-09-17T02:08:37.088Z,11.39
2022-09-17T02:13:48.347Z,11.50
2022-09-17T02:18:59.623Z,11.33
2022-09-17T02:24:28.132Z,11.50
2022-09-17T02:29:35.258Z,11.33
2022-09-17T02:34:38.608Z,11.18
2022-09-17T02:39:42.039Z,11.18
2022-09-17T02:45:19.282Z,11.34
2022-09-17T02:50:28.001Z,11.54
2022-09-17T02:55:52.729Z,11.22
2022-09-17T03:01:01.368Z,10.98
2022-09-17T03:06:04.697Z,10.87
2022-09-17T03:11:09.215Z,10.79
2022-09-17T03:16:11.759Z,10.67
2022-09-17T03:21:14.361Z,10.60
2022-09-17T03:26:16.850Z,10.63
2022-09-17T03:31:19.501Z,10.52
2022-09-17T03:36:22.112Z,10.52
2022-09-17T03:41:25.227Z,10.50
2022-09-17T03:46:27.735Z,10.57
2022-09-17T03:51:30.298Z,10.50
2022-09-17T03:56:32.711Z,10.41
2022-09-17T04:01:36.208Z,10.43
2022-09-17T04:06:38.802Z,10.44
2022-09-17T04:11:41.272Z,10.47
2022-09-17T04:16:43.739Z,10.67
2022-09-17T04:21:46.223Z,10.55
2022-09-17T04:26:49.306Z,10.65
2022-09-17T04:31:52.091Z,10.76
2022-09-17T04:36:54.634Z,10.60
2022-09-17T04:41:57.181Z,10.93
2022-09-17T04:46:59.705Z,11.08
2022-09-17T04:52:02.445Z,11.91
2022-09-17T04:57:05.365Z,11.83
2022-09-17T05:02:07.805Z,11.18
2022-09-17T05:07:13.370Z,10.86
2022-09-17T05:12:16.460Z,10.72
2022-09-17T05:17:19.400Z,10.61
2022-09-17T05:22:21.875Z,10.41
2022-09-17T05:27:24.252Z,10.38
2022-09-17T05:32:26.684Z,10.34
2022-09-17T05:37:29.401Z,10.42
2022-09-17T05:42:31.869Z,10.45
2022-09-17T05:47:35.487Z,10.48
2022-09-17T05:52:37.894Z,10.34
2022-09-17T05:57:40.292Z,10.36
2022-09-17T06:02:43.428Z,10.52
2022-09-17T06:07:45.888Z,11.17
2022-09-17T06:12:48.553Z,11.23
2022-09-17T06:17:51.207Z,11.88
2022-09-17T06:22:57.900Z,11.45
2022-09-17T06:28:03.261Z,11.28
2022-09-17T06:33:05.654Z,11.68
2022-09-17T06:38:08.160Z,11.47
2022-09-17T06:43:10.608Z,11.33
2022-09-17T06:48:13.036Z,12.96
2022-09-17T06:53:15.802Z,12.89
2022-09-17T06:58:18.590Z,12.43
2022-09-17T07:03:23.410Z,12.08
2022-09-17T07:08:26.944Z,12.29
2022-09-17T07:13:29.387Z,12.65
2022-09-17T07:18:32.550Z,11.85
2022-09-17T07:23:37.256Z,11.24
2022-09-17T07:28:40.590Z,11.14
2022-09-17T07:33:43.206Z,11.34
2022-09-17T07:38:46.042Z,11.38
2022-09-17T07:43:49.106Z,11.44
2022-09-17T07:48:51.884Z,11.05
2022-09-17T07:53:56.255Z,10.76
2022-09-17T07:58:58.918Z,10.70
2022-09-17T08:04:01.535Z,10.81
2022-09-17T08:09:04.705Z,11.24
2022-09-17T08:14:10.068Z,11.65
2022-09-17T08:19:12.566Z,11.37
2022-09-17T08:24:14.973Z,11.68
2022-09-17T08:29:17.577Z,11.93
2022-09-17T08:34:20.245Z,11.76
2022-09-17T08:39:22.667Z,11.75
2022-09-17T08:44:32.644Z,12.04
2022-09-17T08:50:06.076Z,12.19
2022-09-17T08:55:26.720Z,13.69
2022-09-17T09:00:46.403Z,13.09
2022-09-17T09:05:53.004Z,13.99
2022-09-17T09:11:02.405Z,12.92
2022-09-17T09:16:11.727Z,13.23
2022-09-17T09:21:37.561Z,13.46
2022-09-17T09:26:48.439Z,15.74
2022-09-17T09:32:19.693Z,15.66
2022-09-17T09:37:26.876Z,16.73
2022-09-17T09:42:39.525Z,16.76
2022-09-17T09:48:05.811Z,17.28
2022-09-17T09:53:15.077Z,16.61
2022-09-17T09:58:26.408Z,16.24
2022-09-17T10:03:32.378Z,16.82
2022-09-17T10:08:41.255Z,16.77
2022-09-17T10:13:43.691Z,16.58
2022-09-17T10:18:48.422Z,16.46
2022-09-17T10:23:51.599Z,18.85
2022-09-17T10:29:02.088Z,20.20
2022-09-17T10:34:04.705Z,19.10
2022-09-17T10:39:29.352Z,17.13
2022-09-17T10:44:36.798Z,18.79
2022-09-17T10:49:43.921Z,18.63
2022-09-17T10:55:30.888Z,22.05
2022-09-17T11:00:53.609Z,20.72
2022-09-17T11:06:14.335Z,21.03
2022-09-17T11:11:48.651Z,21.37
2022-09-17T11:17:22.927Z,22.87
2022-09-17T11:22:52.544Z,22.81
2022-09-17T11:28:07.752Z,22.36
2022-09-17T11:33:40.381Z,24.01
2022-09-17T11:38:49.081Z,22.06
2022-09-17T11:44:05.875Z,22.34
2022-09-17T11:49:29.748Z,20.22
2022-09-17T11:54:53.931Z,19.15
2022-09-17T12:00:06.032Z,19.45
2022-09-17T12:05:18.651Z,19.08
2022-09-17T12:10:41.795Z,19.40
2022-09-17T12:15:53.179Z,19.27
2022-09-17T12:20:59.421Z,19.45
2022-09-17T12:26:06.346Z,18.57
2022-09-17T12:31:51.769Z,19.02
2022-09-17T12:37:08.471Z,19.61
2022-09-17T12:42:24.964Z,19.92
2022-09-17T12:47:59.882Z,19.49
2022-09-17T12:53:19.571Z,18.83
2022-09-17T12:58:53.750Z,18.50
2022-09-17T13:04:59.581Z,17.24
2022-09-17T13:10:08.570Z,16.07
2022-09-17T13:15:22.954Z,14.81
2022-09-17T13:20:32.569Z,14.87
2022-09-17T13:25:49.237Z,14.05
2022-09-17T13:31:01.734Z,14.47
2022-09-17T13:36:04.808Z,14.17
2022-09-17T13:41:21.836Z,15.55
2022-09-17T13:46:26.742Z,16.16
2022-09-17T13:51:32.148Z,16.90
2022-09-17T13:57:10.603Z,16.65
2022-09-17T14:02:19.231Z,20.42
2022-09-17T14:07:22.143Z,19.55
2022-09-17T14:12:49.524Z,19.27
2022-09-17T14:17:55.051Z,20.05
2022-09-17T14:23:10.465Z,19.27
2022-09-17T14:28:23.999Z,19.51
2022-09-17T14:33:32.061Z,19.55
2022-09-17T14:39:04.578Z,19.47
2022-09-17T14:44:18.373Z,21.78
2022-09-17T14:49:30.693Z,18.47
2022-09-17T14:54:36.594Z,18.06
2022-09-17T14:59:46.821Z,19.10
2022-09-17T15:04:49.533Z,18.24
2022-09-17T15:09:55.353Z,16.85
2022-09-17T15:14:58.461Z,16.10
2022-09-17T15:20:05.857Z,15.64
2022-09-17T15:25:09.587Z,16.06
2022-09-17T15:30:22.178Z,15.11
2022-09-17T15:35:24.662Z,16.55
2022-09-17T15:40:42.292Z,15.94
2022-09-17T15:45:44.887Z,17.60
2022-09-17T15:50:55.939Z,16.03
2022-09-17T15:56:13.265Z,16.39
2022-09-17T16:01:15.830Z,15.50
2022-09-17T16:06:21.038Z,14.90
2022-09-17T16:11:26.787Z,15.49
2022-09-17T16:16:37.271Z,14.95
2022-09-17T16:21:39.353Z,15.16
2022-09-17T16:26:41.956Z,15.48
2022-09-17T16:31:44.968Z,15.90
2022-09-17T16:36:47.118Z,15.61
2022-09-17T16:41:49.868Z,15.19
2022-09-17T16:46:52.394Z,14.96
2022-09-17T16:51:54.512Z,14.78
2022-09-17T16:56:56.535Z,15.06
2022-09-17T17:01:58.949Z,14.57
2022-09-17T17:07:01.398Z,14.26
2022-09-17T17:12:04.017Z,14.47
2022-09-17T17:17:06.229Z,14.60
2022-09-17T17:22:08.888Z,14.36
2022-09-17T17:27:10.980Z,13.64
2022-09-17T17:32:13.605Z,13.03
2022-09-17T17:37:16.538Z,13.20
2022-09-17T17:42:19.265Z,12.64
2022-09-17T17:47:24.095Z,13.45
2022-09-17T17:52:26.564Z,13.50
2022-09-17T17:57:29.017Z,13.78
2022-09-17T18:02:31.187Z,13.39
2022-09-17T18:07:34.089Z,12.77
2022-09-17T18:12:37.176Z,12.59
2022-09-17T18:17:39.688Z,12.49
2022-09-17T18:22:42.121Z,11.88
2022-09-17T18:27:44.551Z,11.90
2022-09-17T18:32:49.300Z,12.01
2022-09-17T18:37:51.743Z,11.67
2022-09-17T18:42:54.282Z,12.12
2022-09-17T18:47:56.717Z,12.57
2022-09-17T18:52:59.216Z,11.99
2022-09-17T18:58:01.627Z,11.76
2022-09-17T19:03:04.056Z,12.69
2022-09-17T19:08:06.577Z,16.03
2022-09-17T19:13:08.952Z,16.14
2022-09-17T19:18:11.962Z,15.52
2022-09-17T19:23:14.459Z,15.25
2022-09-17T19:28:16.895Z,12.55
2022-09-17T19:33:19.659Z,11.64
2022-09-17T19:38:25.159Z,12.82
2022-09-17T19:43:28.132Z,13.34
2022-09-17T19:48:31.135Z,13.53
2022-09-17T19:53:34.113Z,14.53
2022-09-17T19:58:36.580Z,14.19
2022-09-17T20:03:40.733Z,12.37
2022-09-17T20:08:51.676Z,11.94
2022-09-17T20:14:06.478Z,11.93
2022-09-17T20:19:11.697Z,11.86
2022-09-17T20:24:14.215Z,11.94
2022-09-17T20:29:16.647Z,11.63
2022-09-17T20:34:19.296Z,11.20
2022-09-17T20:39:23.131Z,11.13
2022-09-17T20:44:25.839Z,10.97
2022-09-17T20:49:28.742Z,10.75
2022-09-17T20:54:31.219Z,10.73
2022-09-17T20:59:52.294Z,10.72
2022-09-17T21:04:55.226Z,10.91
2022-09-17T21:09:57.704Z,10.89
2022-09-17T21:15:00.216Z,10.71
2022-09-17T21:20:03.155Z,10.94
2022-09-17T21:25:06.236Z,14.19
2022-09-17T21:30:09.820Z,13.89
2022-09-17T21:35:12.486Z,11.98
2022-09-17T21:40:15.335Z,11.44
2022-09-17T21:45:17.880Z,10.97
2022-09-17T21:50:21.732Z,11.57
2022-09-17T21:55:24.209Z,11.34
2022-09-17T22:00:26.915Z,11.51
2022-09-17T22:05:29.472Z,11.19
2022-09-17T22:10:31.971Z,11.16
2022-09-17T22:15:34.434Z,11.29
2022-09-17T22:20:36.864Z,10.93
2022-09-17T22:25:39.244Z,10.86
2022-09-17T22:30:42.476Z,11.12
2022-09-17T22:35:44.919Z,10.65
2022-09-17T22:40:47.393Z,10.90
2022-09-17T22:45:50.248Z,11.03
2022-09-17T22:50:53.326Z,10.93
2022-09-17T22:55:56.971Z,10.69
2022-09-17T23:01:02.887Z,10.53
2022-09-17T23:06:08.164Z,10.63
2022-09-17T23:11:20.921Z,10.66
2022-09-17T23:16:23.877Z,10.64
2022-09-17T23:21:26.603Z,10.86
2022-09-17T23:26:29.104Z,10.79
2022-09-17T23:31:31.866Z,10.96
2022-09-17T23:36:36.917Z,10.81
2022-09-17T23:41:44.876Z,10.84
2022-09-17T23:46:47.450Z,10.82
2022-09-17T23:51:50.388Z,10.95
2022-09-17T23:56:52.805Z,10.97
